Time;durP1;ratioP1;P1;durP2;ratioP2;P2;SDS_P1;SDS_P2;PMS_P1;PMS_P2;Temp;Humidity;BMP_temperature;BMP_pressure;BME280_temperature;BME280_humidity;BME280_pressure;Samples;Min_cycle;Max_cycle;Signal;HPM_P1;HPM_P2
2021/01/21 09:30:24;;;;;;;1.90;0.57;;;7.70;99.90;;;;;;4628714;22;20244;-72
2021/01/21 09:32:50;;;;;;;2.20;0.50;;;7.80;99.90;;;;;;5033730;28;20231;-72
2021/01/21 09:35:19;;;;;;;4.50;0.57;;;7.90;99.90;;;;;;5033869;28;20216;-76
2021/01/21 09:37:47;;;;;;;2.50;0.77;;;7.90;99.90;;;;;;5033695;28;20728;-71
2021/01/21 09:40:15;;;;;;;2.60;0.60;;;7.90;99.90;;;;;;5034035;28;20208;-72
2021/01/21 09:42:42;;;;;;;2.07;0.40;;;8.00;99.90;;;;;;5033888;28;20236;-71
2021/01/21 09:45:10;;;;;;;1.47;0.53;;;8.00;99.90;;;;;;5033984;28;20200;-72
2021/01/21 09:47:37;;;;;;;2.87;0.50;;;8.10;99.90;;;;;;5033495;28;20253;-72
2021/01/21 09:50:05;;;;;;;0.93;0.33;;;8.10;99.90;;;;;;5033421;28;20208;-72
2021/01/21 09:52:32;;;;;;;3.03;0.63;;;8.20;99.90;;;;;;5033388;28;20201;-72
2021/01/21 09:54:58;;;;;;;1.07;0.50;;;8.30;99.90;;;;;;5033762;28;20370;-73
2021/01/21 09:57:25;;;;;;;3.73;0.50;;;8.30;99.90;;;;;;5033683;28;20295;-75
2021/01/21 09:59:51;;;;;;;0.60;0.50;;;8.30;99.90;;;;;;5033618;28;20227;-76
2021/01/21 10:02:18;;;;;;;0.50;0.30;;;8.30;99.90;;;;;;5033289;28;20712;-71
2021/01/21 10:04:45;;;;;;;8.57;0.53;;;8.30;99.90;;;;;;5033452;28;20213;-71
2021/01/21 10:07:12;;;;;;;2.13;0.40;;;8.30;99.90;;;;;;5033239;28;20764;-71
2021/01/21 10:09:38;;;;;;;6.93;0.80;;;8.30;99.90;;;;;;5033657;28;20201;-72
2021/01/21 10:12:06;;;;;;;1.80;0.50;;;8.30;99.90;;;;;;5032678;28;20216;-71
2021/01/21 10:14:33;;;;;;;2.17;0.67;;;8.20;99.90;;;;;;5033314;28;20212;-77
2021/01/21 10:16:59;;;;;;;5.20;0.67;;;8.30;99.90;;;;;;5033164;28;20236;-72
2021/01/21 10:19:26;;;;;;;2.47;0.63;;;8.30;99.90;;;;;;5032977;28;20209;-71
2021/01/21 10:21:53;;;;;;;1.93;0.80;;;8.20;99.90;;;;;;5033467;28;20233;-79
2021/01/21 10:24:21;;;;;;;3.70;0.50;;;8.40;99.90;;;;;;5031191;28;20211;-70
2021/01/21 10:26:47;;;;;;;1.03;0.30;;;8.50;99.90;;;;;;5032874;28;20260;-70
2021/01/21 10:29:14;;;;;;;0.83;0.30;;;8.60;99.90;;;;;;5032881;28;20208;-71
2021/01/21 10:31:40;;;;;;;3.03;0.30;;;8.60;99.90;;;;;;5027440;28;20213;-73
2021/01/21 10:34:07;;;;;;;2.40;0.60;;;8.60;99.90;;;;;;5031151;28;20613;-75
2021/01/21 10:36:34;;;;;;;6.30;0.40;;;8.70;99.90;;;;;;5031275;28;20224;-70
2021/01/21 10:39:01;;;;;;;2.47;0.53;;;8.90;99.90;;;;;;5030611;28;20208;-69
2021/01/21 10:41:27;;;;;;;4.83;0.50;;;8.80;99.90;;;;;;5031685;28;20240;-69
2021/01/21 10:43:53;;;;;;;4.43;0.60;;;8.90;99.90;;;;;;5031263;28;20201;-70
2021/01/21 10:46:20;;;;;;;1.83;0.53;;;8.90;99.90;;;;;;5030703;28;20212;-70
2021/01/21 10:48:46;;;;;;;5.83;0.97;;;8.90;99.90;;;;;;5031168;28;20682;-70
2021/01/21 10:51:12;;;;;;;1.83;0.50;;;8.80;99.90;;;;;;5031053;28;20224;-68
2021/01/21 10:53:39;;;;;;;2.73;0.43;;;8.80;99.90;;;;;;5030266;28;20209;-72
2021/01/21 10:56:06;;;;;;;2.97;0.40;;;8.80;99.90;;;;;;5030739;28;20232;-74
2021/01/21 10:58:32;;;;;;;3.20;0.50;;;8.80;99.90;;;;;;5030997;28;20219;-71
2021/01/21 11:00:59;;;;;;;1.47;0.50;;;8.80;99.90;;;;;;5029898;28;20232;-70
2021/01/21 11:03:25;;;;;;;5.97;0.50;;;8.90;99.90;;;;;;5030989;28;20209;-69
2021/01/21 11:05:51;;;;;;;0.60;0.30;;;8.90;99.90;;;;;;5031392;28;20201;-70
2021/01/21 11:08:18;;;;;;;0.60;0.53;;;9.00;99.90;;;;;;5030133;28;20225;-72
2021/01/21 11:10:45;;;;;;;1.23;0.50;;;8.90;99.90;;;;;;5030889;28;20205;-70
2021/01/21 11:13:17;;;;;;;3.70;0.50;;;8.90;99.90;;;;;;5030875;28;20204;-70
2021/01/21 11:15:43;;;;;;;1.30;0.30;;;9.00;99.90;;;;;;5030385;28;20216;-69
2021/01/21 11:18:10;;;;;;;4.67;0.93;;;8.90;99.90;;;;;;5030845;28;20228;-69
2021/01/21 11:20:36;;;;;;;0.43;0.37;;;9.10;99.90;;;;;;5030415;28;20205;-71
2021/01/21 11:23:02;;;;;;;2.17;0.53;;;9.10;99.90;;;;;;5031684;28;20233;-71
2021/01/21 11:25:29;;;;;;;1.83;0.50;;;9.10;99.90;;;;;;5034332;28;20205;-70
2021/01/21 11:27:55;;;;;;;1.23;0.30;;;9.10;99.90;;;;;;5032577;28;20240;-72
2021/01/21 11:30:23;;;;;;;0.80;0.20;;;9.00;99.90;;;;;;5029947;28;20205;-72
2021/01/21 11:32:50;;;;;;;1.93;0.27;;;8.90;99.90;;;;;;5034145;28;20216;-70
2021/01/21 11:35:16;;;;;;;2.47;0.30;;;9.00;99.90;;;;;;5034067;28;20201;-69
2021/01/21 11:37:42;;;;;;;2.73;0.67;;;9.00;99.90;;;;;;5029678;28;20311;-70
2021/01/21 11:40:09;;;;;;;2.30;0.40;;;8.90;99.90;;;;;;5034469;28;20201;-71
2021/01/21 11:42:35;;;;;;;4.63;0.60;;;8.80;99.90;;;;;;5034427;28;20232;-72
2021/01/21 11:45:05;;;;;;;2.23;0.40;;;8.90;99.90;;;;;;5033759;28;20213;-70
2021/01/21 11:47:32;;;;;;;1.27;0.20;;;8.90;99.90;;;;;;5034111;28;20720;-70
2021/01/21 11:50:00;;;;;;;2.97;0.97;;;8.90;99.90;;;;;;5034201;28;20232;-71
2021/01/21 11:52:27;;;;;;;2.10;0.20;;;9.00;99.90;;;;;;5034122;28;20219;-71
2021/01/21 11:54:53;;;;;;;2.83;0.40;;;9.10;99.90;;;;;;5034200;28;20204;-74
2021/01/21 11:57:19;;;;;;;1.47;0.40;;;9.20;99.90;;;;;;5032790;28;20251;-73
2021/01/21 11:59:46;;;;;;;0.60;0.30;;;9.20;99.90;;;;;;5034824;28;20258;-74
2021/01/21 12:02:12;;;;;;;3.40;1.03;;;9.00;99.90;;;;;;5035112;28;20244;-74
2021/01/21 12:04:39;;;;;;;1.47;0.40;;;9.20;99.90;;;;;;5035227;28;20714;-73
2021/01/21 12:07:05;;;;;;;1.17;0.30;;;9.30;99.90;;;;;;5035362;28;20224;-73
2021/01/21 12:09:31;;;;;;;1.37;0.30;;;9.20;99.90;;;;;;5034858;28;20209;-75
2021/01/21 12:11:58;;;;;;;1.03;0.30;;;9.20;99.90;;;;;;5035054;28;20223;-73
2021/01/21 12:14:24;;;;;;;2.70;0.40;;;9.20;99.90;;;;;;5035187;28;20562;-73
2021/01/21 12:16:50;;;;;;;1.27;0.33;;;9.00;99.90;;;;;;5035123;28;20225;-75
2021/01/21 12:19:16;;;;;;;1.30;0.30;;;9.00;99.90;;;;;;5034839;28;20239;-73
2021/01/21 12:21:43;;;;;;;4.83;0.47;;;8.90;99.90;;;;;;5034452;28;20233;-72
2021/01/21 12:24:10;;;;;;;0.43;0.43;;;8.80;99.90;;;;;;5035280;28;20208;-73
2021/01/21 12:26:36;;;;;;;1.33;0.50;;;8.80;99.90;;;;;;5034860;28;20228;-72
2021/01/21 12:29:03;;;;;;;4.30;0.60;;;8.70;99.90;;;;;;5034415;28;20209;-74
2021/01/21 12:31:30;;;;;;;2.23;0.30;;;8.70;99.90;;;;;;5035030;28;20679;-73
2021/01/21 12:33:56;;;;;;;0.83;0.30;;;8.80;99.90;;;;;;5034114;28;20563;-73
2021/01/21 12:36:23;;;;;;;2.83;0.70;;;8.70;99.90;;;;;;5034902;28;20299;-73
2021/01/21 12:38:50;;;;;;;2.37;0.30;;;8.80;99.90;;;;;;5034973;28;20205;-73
2021/01/21 12:41:16;;;;;;;1.97;0.53;;;8.80;99.90;;;;;;5035085;28;20237;-73
2021/01/21 12:43:42;;;;;;;1.23;0.30;;;8.80;99.90;;;;;;5034938;28;20201;-72
2021/01/21 12:46:09;;;;;;;5.13;0.40;;;8.90;99.90;;;;;;5034571;28;20217;-74
2021/01/21 12:48:35;;;;;;;2.03;0.23;;;8.90;99.90;;;;;;5034845;28;20204;-72
2021/01/21 12:51:01;;;;;;;0.83;0.37;;;8.80;99.90;;;;;;5034962;28;20212;-73
2021/01/21 12:53:27;;;;;;;1.07;0.20;;;8.80;99.90;;;;;;5034651;28;20212;-73
2021/01/21 12:55:54;;;;;;;3.53;0.30;;;8.70;99.90;;;;;;5034816;28;20219;-72
2021/01/21 12:58:21;;;;;;;2.10;0.20;;;8.80;99.90;;;;;;5034667;28;20579;-72
2021/01/21 13:00:47;;;;;;;3.50;0.40;;;8.70;99.90;;;;;;5034644;28;20212;-72
2021/01/21 13:03:13;;;;;;;0.73;0.30;;;8.70;99.90;;;;;;5034475;28;20237;-73
2021/01/21 13:05:39;;;;;;;3.10;0.40;;;8.80;99.90;;;;;;5034267;28;20671;-74
2021/01/21 13:08:05;;;;;;;2.77;0.20;;;8.80;99.90;;;;;;5034241;28;20271;-75
2021/01/21 13:10:32;;;;;;;1.50;0.30;;;8.80;99.90;;;;;;5034518;28;20549;-71
2021/01/21 13:12:59;;;;;;;4.37;0.57;;;8.80;99.90;;;;;;5034236;28;20666;-73
2021/01/21 13:15:26;;;;;;;4.83;0.60;;;8.80;99.90;;;;;;5034347;28;20575;-72
2021/01/21 13:17:52;;;;;;;3.00;0.70;;;8.80;99.90;;;;;;5034156;28;20236;-71
2021/01/21 13:20:18;;;;;;;2.93;0.30;;;8.90;99.90;;;;;;5034369;28;20366;-71
2021/01/21 13:22:45;;;;;;;5.10;0.40;;;8.80;99.90;;;;;;5023250;28;20233;-77
2021/01/21 13:25:12;;;;;;;1.80;0.47;;;9.00;99.90;;;;;;5031271;28;20220;-73
2021/01/21 13:27:38;;;;;;;2.30;0.67;;;9.00;99.90;;;;;;5034182;28;20248;-73
2021/01/21 13:30:07;;;;;;;2.20;0.93;;;9.00;99.90;;;;;;5033930;28;20234;-74
2021/01/21 13:32:33;;;;;;;2.23;0.40;;;9.00;99.90;;;;;;5033818;28;20594;-73
2021/01/21 13:34:59;;;;;;;1.97;0.47;;;9.10;99.90;;;;;;5033965;28;20208;-71
2021/01/21 13:37:25;;;;;;;1.33;0.30;;;9.10;99.90;;;;;;5033673;28;20228;-70
2021/01/21 13:39:51;;;;;;;2.10;0.27;;;9.10;99.90;;;;;;5034147;28;20209;-71
2021/01/21 13:42:21;;;;;;;6.10;1.10;;;9.10;99.90;;;;;;5033664;28;20637;-72
2021/01/21 13:44:47;;;;;;;3.13;0.33;;;9.20;99.90;;;;;;5033860;28;20209;-71
2021/01/21 13:47:14;;;;;;;2.00;0.47;;;9.20;99.90;;;;;;5033575;28;20275;-71
2021/01/21 13:49:40;;;;;;;2.47;0.60;;;9.20;99.90;;;;;;5033609;28;20205;-73
2021/01/21 13:52:06;;;;;;;10.97;0.40;;;9.20;99.90;;;;;;5033551;28;20209;-71
2021/01/21 13:54:33;;;;;;;1.80;0.30;;;9.20;99.90;;;;;;5033571;28;20216;-67
2021/01/21 13:56:59;;;;;;;6.03;0.50;;;9.10;99.90;;;;;;5033415;28;20225;-73
2021/01/21 13:59:25;;;;;;;2.83;0.70;;;9.10;99.90;;;;;;5033662;28;20205;-71
2021/01/21 14:01:51;;;;;;;2.00;0.30;;;9.00;99.90;;;;;;5033184;28;20706;-68
2021/01/21 14:04:18;;;;;;;1.63;0.47;;;9.00;99.90;;;;;;5033392;28;20204;-68
2021/01/21 14:06:44;;;;;;;0.87;0.30;;;9.10;99.90;;;;;;5033379;28;20232;-71
2021/01/21 14:09:11;;;;;;;1.50;0.30;;;9.10;99.90;;;;;;5033376;28;20200;-70
2021/01/21 14:11:37;;;;;;;3.67;0.83;;;9.10;99.90;;;;;;5033334;28;20215;-69
2021/01/21 14:14:03;;;;;;;0.60;0.27;;;9.00;99.90;;;;;;5033115;28;20205;-76
2021/01/21 14:16:29;;;;;;;1.30;0.30;;;9.00;99.90;;;;;;5032727;28;20267;-71
2021/01/21 14:18:56;;;;;;;1.63;0.40;;;9.00;99.90;;;;;;5032976;28;20216;-69
2021/01/21 14:21:23;;;;;;;3.07;0.47;;;9.00;99.90;;;;;;5033140;28;20235;-70
2021/01/21 14:23:49;;;;;;;1.23;0.43;;;9.00;99.90;;;;;;5033431;28;20209;-70
2021/01/21 14:26:15;;;;;;;3.30;0.40;;;9.00;99.90;;;;;;5032932;28;20587;-71
2021/01/21 14:28:41;;;;;;;5.30;0.30;;;9.00;99.90;;;;;;5033094;28;20690;-71
2021/01/21 14:31:07;;;;;;;2.60;0.60;;;9.00;99.90;;;;;;5032865;28;20675;-82
2021/01/21 14:33:34;;;;;;;2.33;0.50;;;9.00;99.90;;;;;;5033080;28;20208;-71
2021/01/21 14:36:00;;;;;;;5.00;0.57;;;8.90;99.90;;;;;;5033308;28;20282;-71
2021/01/21 14:38:27;;;;;;;4.57;0.70;;;9.30;99.90;;;;;;5033119;28;20252;-70
2021/01/21 14:40:54;;;;;;;4.00;0.87;;;9.50;99.90;;;;;;5032971;28;20209;-71
2021/01/21 14:43:20;;;;;;;3.47;1.13;;;9.60;99.90;;;;;;5032814;28;20768;-83
2021/01/21 14:45:46;;;;;;;3.97;0.47;;;9.70;99.90;;;;;;5032844;28;20205;-71
2021/01/21 14:48:12;;;;;;;5.87;0.50;;;9.80;99.90;;;;;;5032802;28;20263;-70
2021/01/21 14:50:38;;;;;;;4.10;0.50;;;9.90;99.90;;;;;;5032897;28;20209;-71
2021/01/21 14:53:05;;;;;;;3.67;0.40;;;10.10;99.90;;;;;;5033073;28;20212;-70
2021/01/21 14:55:32;;;;;;;2.40;0.70;;;9.90;99.90;;;;;;5033062;28;20232;-70
2021/01/21 14:57:58;;;;;;;1.97;0.40;;;9.70;99.90;;;;;;5034631;28;20225;-83
2021/01/21 15:00:26;;;;;;;2.87;0.50;;;9.60;99.90;;;;;;5036985;28;20208;-70
2021/01/21 15:02:52;;;;;;;0.97;0.30;;;9.40;99.90;;;;;;5033087;28;20278;-71
2021/01/21 15:05:19;;;;;;;5.47;0.50;;;9.20;99.90;;;;;;5026357;28;20200;-69
2021/01/21 15:07:45;;;;;;;4.40;0.40;;;9.20;99.90;;;;;;5023628;28;20233;-74
2021/01/21 15:10:12;;;;;;;1.80;0.50;;;9.10;99.90;;;;;;5022835;28;20228;-71
2021/01/21 15:12:40;;;;;;;4.13;0.40;;;9.10;99.90;;;;;;5018614;28;20259;-70
2021/01/21 15:15:07;;;;;;;4.50;0.47;;;9.10;99.90;;;;;;5026349;28;20205;-72
2021/01/21 15:17:34;;;;;;;5.37;0.50;;;9.10;99.90;;;;;;5017605;28;20243;-71
2021/01/21 15:20:00;;;;;;;3.17;0.60;;;9.00;99.90;;;;;;5026456;28;20271;-72
2021/01/21 15:22:26;;;;;;;5.53;0.30;;;9.10;99.90;;;;;;5025181;28;20232;-72
2021/01/21 15:24:52;;;;;;;3.03;0.30;;;9.10;99.90;;;;;;5034131;28;20662;-71
2021/01/21 15:27:19;;;;;;;4.93;0.30;;;9.10;99.90;;;;;;5035173;28;20236;-70
2021/01/21 15:29:47;;;;;;;3.90;1.30;;;9.10;99.90;;;;;;5034732;28;20205;-68
2021/01/21 15:32:14;;;;;;;0.87;0.30;;;9.10;99.90;;;;;;5033976;28;20223;-71
2021/01/21 15:34:40;;;;;;;1.40;0.20;;;9.10;99.90;;;;;;5034164;28;20220;-68
2021/01/21 15:37:06;;;;;;;3.30;0.60;;;9.10;99.90;;;;;;5034698;28;20240;-68
2021/01/21 15:39:33;;;;;;;5.83;0.33;;;9.00;99.90;;;;;;5033990;28;20208;-71
2021/01/21 15:41:59;;;;;;;0.90;0.37;;;9.00;99.90;;;;;;5033713;28;20271;-71
2021/01/21 15:44:26;;;;;;;2.10;0.40;;;9.00;99.90;;;;;;5033905;28;20666;-69
2021/01/21 15:46:53;;;;;;;2.53;0.60;;;9.00;99.90;;;;;;5034029;28;20235;-68
2021/01/21 15:49:19;;;;;;;3.70;0.40;;;9.00;99.90;;;;;;5025603;28;20210;-69
2021/01/21 15:51:45;;;;;;;2.87;0.57;;;9.00;99.90;;;;;;5016601;28;20216;-68
2021/01/21 15:54:11;;;;;;;0.50;0.40;;;9.00;99.90;;;;;;5027909;28;20209;-73
2021/01/21 15:56:38;;;;;;;3.53;0.50;;;9.00;99.90;;;;;;5033531;28;20239;-68
2021/01/21 15:59:04;;;;;;;1.40;0.20;;;8.90;99.90;;;;;;5033306;28;20201;-69
2021/01/21 16:01:30;;;;;;;1.70;0.40;;;8.80;99.90;;;;;;5032593;28;20233;-68
2021/01/21 16:03:57;;;;;;;1.17;0.20;;;8.80;99.90;;;;;;5026413;28;20326;-69
2021/01/21 16:06:23;;;;;;;0.53;0.20;;;8.70;99.90;;;;;;5033302;28;20216;-73
2021/01/21 16:08:49;;;;;;;3.53;0.33;;;8.60;99.90;;;;;;5032630;28;20220;-75
2021/01/21 16:11:16;;;;;;;2.87;0.40;;;8.60;99.90;;;;;;5034727;28;20201;-76
2021/01/21 16:13:43;;;;;;;2.80;0.30;;;8.60;99.90;;;;;;5034757;28;20200;-73
2021/01/21 16:16:10;;;;;;;3.10;0.50;;;8.50;99.90;;;;;;5034849;28;20205;-73
2021/01/21 16:18:36;;;;;;;1.87;0.50;;;8.50;99.90;;;;;;5035031;28;20208;-73
2021/01/21 16:21:04;;;;;;;6.27;0.70;;;8.50;99.90;;;;;;5034410;28;20201;-73
2021/01/21 16:23:31;;;;;;;1.97;0.50;;;8.40;99.90;;;;;;5034787;28;20236;-73
2021/01/21 16:25:57;;;;;;;4.80;0.80;;;8.40;99.90;;;;;;5034633;28;20208;-71
2021/01/21 16:28:23;;;;;;;2.73;0.30;;;8.20;99.90;;;;;;5034376;28;20237;-71
2021/01/21 16:30:50;;;;;;;2.80;0.47;;;8.30;99.90;;;;;;5034790;28;20219;-72
2021/01/21 16:33:17;;;;;;;2.47;0.40;;;8.20;99.90;;;;;;5035097;28;20246;-73
2021/01/21 16:35:43;;;;;;;2.97;0.40;;;8.30;99.90;;;;;;5034355;28;20263;-75
2021/01/21 16:38:11;;;;;;;4.80;0.37;;;8.30;99.90;;;;;;5034019;28;20248;-73
2021/01/21 16:40:37;;;;;;;1.07;0.30;;;8.30;99.90;;;;;;5033834;28;20205;-72
2021/01/21 16:43:03;;;;;;;1.67;0.47;;;8.20;99.90;;;;;;5032389;28;20247;-73
2021/01/21 16:45:30;;;;;;;4.43;0.63;;;8.20;99.90;;;;;;5034577;28;20205;-73
2021/01/21 16:47:56;;;;;;;2.63;0.83;;;8.20;99.90;;;;;;5034288;28;20225;-72
2021/01/21 16:50:22;;;;;;;5.20;0.80;;;8.10;99.90;;;;;;5034496;28;20209;-77
2021/01/21 16:52:48;;;;;;;5.33;0.80;;;8.10;99.90;;;;;;5033967;28;20208;-75
2021/01/21 16:55:15;;;;;;;6.13;0.80;;;8.10;99.90;;;;;;5034262;28;20209;-73
2021/01/21 16:57:42;;;;;;;4.33;0.60;;;8.00;99.90;;;;;;5033907;28;20225;-75
2021/01/21 17:00:09;;;;;;;2.47;0.50;;;8.00;99.90;;;;;;5034314;28;20212;-75
2021/01/21 17:02:36;;;;;;;1.87;0.47;;;7.90;99.90;;;;;;5034031;28;20327;-75
2021/01/21 17:05:02;;;;;;;2.50;1.00;;;7.90;99.90;;;;;;5033797;28;20292;-74
2021/01/21 17:07:28;;;;;;;9.33;0.70;;;7.90;99.90;;;;;;5034042;28;20224;-74
2021/01/21 17:09:54;;;;;;;4.00;1.43;;;7.90;99.90;;;;;;5033851;28;20205;-74
2021/01/21 17:12:21;;;;;;;7.77;0.87;;;8.00;99.90;;;;;;5033558;28;20205;-74
2021/01/21 17:14:47;;;;;;;2.00;0.33;;;8.00;99.90;;;;;;5033542;28;20215;-71
2021/01/21 17:17:14;;;;;;;3.33;0.70;;;8.10;99.90;;;;;;5033649;28;20232;-76
2021/01/21 17:19:40;;;;;;;3.53;0.80;;;8.00;99.90;;;;;;5028160;28;20209;-74
2021/01/21 17:22:06;;;;;;;4.23;0.60;;;8.00;99.90;;;;;;5022825;28;20315;-73
2021/01/21 17:24:32;;;;;;;1.90;0.67;;;8.00;99.90;;;;;;5034034;28;20216;-76
2021/01/21 17:27:00;;;;;;;4.63;1.00;;;8.10;99.90;;;;;;5033793;28;20560;-76
2021/01/21 17:29:27;;;;;;;3.10;0.93;;;8.10;99.90;;;;;;5033596;28;20211;-75
2021/01/21 17:31:53;;;;;;;8.27;1.13;;;8.20;99.90;;;;;;5033247;28;20219;-81
2021/01/21 17:34:19;;;;;;;3.17;0.70;;;8.20;99.90;;;;;;5033222;28;20212;-74
2021/01/21 17:36:45;;;;;;;6.07;1.13;;;8.20;99.90;;;;;;5033799;28;20221;-76
2021/01/21 17:39:12;;;;;;;4.20;1.07;;;8.20;99.90;;;;;;5033445;28;20204;-72
2021/01/21 17:41:39;;;;;;;6.33;1.00;;;8.00;99.90;;;;;;5031654;28;20220;-72
2021/01/21 17:44:06;;;;;;;4.17;1.07;;;8.20;99.90;;;;;;5031496;28;20205;-73
2021/01/21 17:46:33;;;;;;;3.17;0.90;;;8.20;99.90;;;;;;5033265;28;20287;-73
2021/01/21 17:49:00;;;;;;;7.63;1.30;;;8.20;99.90;;;;;;5032892;28;20213;-72
2021/01/21 17:51:26;;;;;;;5.40;2.80;;;7.80;99.90;;;;;;5032692;28;20263;-73
2021/01/21 17:53:52;;;;;;;4.73;1.97;;;7.70;99.90;;;;;;5033001;28;20213;-77
2021/01/21 17:56:18;;;;;;;1.60;0.50;;;7.50;99.90;;;;;;5032988;28;20213;-76
2021/01/21 17:58:45;;;;;;;3.33;0.90;;;7.40;99.90;;;;;;5033111;28;20590;-74
2021/01/21 18:01:11;;;;;;;2.33;0.90;;;7.30;99.90;;;;;;5032788;28;20213;-71
2021/01/21 18:03:38;;;;;;;3.17;0.77;;;7.40;99.90;;;;;;5022862;28;20303;-72
2021/01/21 18:06:05;;;;;;;3.83;0.67;;;7.40;99.90;;;;;;5026611;28;20220;-72
2021/01/21 18:08:31;;;;;;;2.47;0.97;;;7.30;99.90;;;;;;5012743;28;20303;-76
2021/01/21 18:10:58;;;;;;;3.53;1.07;;;7.30;99.90;;;;;;5012896;28;20206;-74
2021/01/21 18:13:24;;;;;;;0.93;0.47;;;7.20;99.90;;;;;;5020647;28;20248;-72
2021/01/21 18:15:51;;;;;;;4.53;0.80;;;7.10;99.90;;;;;;5032876;28;20622;-73
2021/01/21 18:18:19;;;;;;;2.00;0.80;;;7.00;99.90;;;;;;5032596;28;20248;-78
2021/01/21 18:20:47;;;;;;;3.97;0.57;;;7.00;99.90;;;;;;5032315;28;20288;-71
2021/01/21 18:23:13;;;;;;;3.07;0.90;;;7.00;99.90;;;;;;5032239;28;20236;-72
2021/01/21 18:25:40;;;;;;;0.80;0.40;;;6.90;99.90;;;;;;5032610;28;20212;-80
2021/01/21 18:28:07;;;;;;;4.20;0.50;;;7.10;99.90;;;;;;5033003;28;20757;-77
2021/01/21 18:30:33;;;;;;;2.83;0.57;;;7.20;99.90;;;;;;5032061;28;20287;-85
2021/01/21 18:33:00;;;;;;;1.23;0.70;;;7.30;99.90;;;;;;5031816;28;20201;-76
2021/01/21 18:35:26;;;;;;;1.27;0.57;;;7.30;99.90;;;;;;5032347;28;20216;-77
2021/01/21 18:37:53;;;;;;;3.53;0.53;;;7.40;99.90;;;;;;5033003;28;20229;-85
2021/01/21 18:40:20;;;;;;;2.97;0.80;;;7.40;99.90;;;;;;5032334;28;20643;-77
2021/01/21 18:42:47;;;;;;;1.90;0.60;;;7.40;99.90;;;;;;5032323;28;20233;-76
2021/01/21 18:45:13;;;;;;;1.70;0.60;;;7.40;99.90;;;;;;5032463;28;20205;-77
2021/01/21 18:47:40;;;;;;;3.10;0.77;;;7.50;99.90;;;;;;5032033;28;20698;-77
2021/01/21 18:50:08;;;;;;;2.87;1.00;;;7.60;99.90;;;;;;5032523;28;20208;-77
2021/01/21 18:52:34;;;;;;;1.43;0.63;;;7.60;99.90;;;;;;5032544;28;20262;-78
2021/01/21 18:55:02;;;;;;;1.93;0.90;;;7.70;99.90;;;;;;5031965;28;20217;-77
2021/01/21 18:57:28;;;;;;;2.00;0.60;;;7.80;99.90;;;;;;5032196;28;20690;-80
2021/01/21 18:59:55;;;;;;;4.97;0.70;;;7.90;99.90;;;;;;5031369;28;20685;-77
2021/01/21 19:02:21;;;;;;;3.80;0.87;;;8.00;99.90;;;;;;5032171;28;20233;-77
2021/01/21 19:04:47;;;;;;;4.20;0.77;;;8.10;99.90;;;;;;5032406;28;20254;-77
2021/01/21 19:07:14;;;;;;;1.30;0.70;;;8.20;99.90;;;;;;5032077;28;20225;-80
2021/01/21 19:09:40;;;;;;;1.20;0.63;;;8.20;99.90;;;;;;5032500;28;20204;-77
2021/01/21 19:12:08;;;;;;;1.00;0.60;;;8.20;99.90;;;;;;5032227;28;20205;-77
2021/01/21 19:14:35;;;;;;;0.80;0.20;;;8.30;99.90;;;;;;5032507;28;20567;-77
2021/01/21 19:17:04;;;;;;;0.73;0.50;;;8.40;99.90;;;;;;5031945;28;20232;-78
2021/01/21 19:19:31;;;;;;;1.20;0.50;;;8.40;99.90;;;;;;5032316;28;20223;-77
2021/01/21 19:21:57;;;;;;;0.77;0.30;;;8.50;99.90;;;;;;5032308;28;20229;-77
2021/01/21 19:24:23;;;;;;;0.97;0.33;;;8.50;99.90;;;;;;5031084;28;20211;-75
2021/01/21 19:26:50;;;;;;;2.10;0.40;;;8.50;99.90;;;;;;5031827;28;20225;-74
2021/01/21 19:29:17;;;;;;;1.70;0.40;;;8.50;99.90;;;;;;5031961;28;20240;-77
2021/01/21 19:31:44;;;;;;;0.60;0.40;;;8.60;99.90;;;;;;5031874;28;20225;-84
2021/01/21 19:34:10;;;;;;;0.40;0.30;;;8.60;99.90;;;;;;5032089;28;20209;-77
2021/01/21 19:36:36;;;;;;;0.70;0.23;;;8.70;99.90;;;;;;5029427;28;20717;-82
2021/01/21 19:39:03;;;;;;;0.67;0.40;;;8.70;99.90;;;;;;5032069;28;20220;-78
2021/01/21 19:41:29;;;;;;;2.70;0.40;;;8.80;99.90;;;;;;5031901;28;20213;-74
2021/01/21 19:43:55;;;;;;;1.17;0.50;;;8.80;99.90;;;;;;5032985;28;20241;-73
2021/01/21 19:46:22;;;;;;;1.97;0.57;;;8.90;99.90;;;;;;5034447;28;20357;-77
2021/01/21 19:48:49;;;;;;;0.37;0.20;;;8.80;99.90;;;;;;5035052;28;20254;-74
2021/01/21 19:51:15;;;;;;;0.63;0.30;;;8.80;99.90;;;;;;5035328;28;20212;-76
2021/01/21 19:53:41;;;;;;;1.07;0.50;;;8.90;99.90;;;;;;5034549;28;20213;-81
2021/01/21 19:56:07;;;;;;;0.80;0.47;;;8.90;99.90;;;;;;5034862;28;20204;-77
2021/01/21 19:58:34;;;;;;;0.57;0.30;;;9.00;99.90;;;;;;5030389;28;20213;-77
2021/01/21 20:01:00;;;;;;;2.37;0.30;;;9.00;99.90;;;;;;5033464;28;20213;-78
2021/01/21 20:03:27;;;;;;;0.40;0.30;;;9.10;99.90;;;;;;5033175;28;20243;-77
2021/01/21 20:05:55;;;;;;;0.30;0.30;;;9.10;99.90;;;;;;5033178;28;20243;-77
2021/01/21 20:08:21;;;;;;;0.50;0.40;;;9.10;99.90;;;;;;5032227;28;20232;-76
2021/01/21 20:10:48;;;;;;;1.17;0.30;;;9.10;99.90;;;;;;5034960;28;20257;-77
2021/01/21 20:13:19;;;;;;;1.63;0.20;;;9.10;99.90;;;;;;5035166;28;20201;-75
2021/01/21 20:15:46;;;;;;;0.63;0.30;;;9.10;99.90;;;;;;5034842;28;20209;-76
2021/01/21 20:18:12;;;;;;;0.40;0.27;;;9.20;99.90;;;;;;5035338;28;20236;-76
2021/01/21 20:20:40;;;;;;;1.13;0.40;;;9.20;99.90;;;;;;5035281;28;20228;-76
2021/01/21 20:23:06;;;;;;;4.20;0.63;;;9.20;99.90;;;;;;5035020;28;20237;-76
2021/01/21 20:25:33;;;;;;;0.37;0.27;;;9.20;99.90;;;;;;5035153;28;20255;-76
2021/01/21 20:27:59;;;;;;;0.30;0.20;;;9.20;99.90;;;;;;5034772;28;20221;-76
2021/01/21 20:30:25;;;;;;;1.70;0.30;;;9.20;99.90;;;;;;5034875;28;20584;-78
2021/01/21 20:32:51;;;;;;;0.40;0.20;;;9.20;99.90;;;;;;5034605;28;20212;-78
2021/01/21 20:35:18;;;;;;;0.63;0.30;;;9.20;99.90;;;;;;5034988;28;20211;-77
2021/01/21 20:37:46;;;;;;;1.10;0.30;;;9.20;99.90;;;;;;5034447;28;20220;-78
2021/01/21 20:40:14;;;;;;;1.13;0.50;;;9.20;99.90;;;;;;5034681;28;20197;-78
2021/01/21 20:42:40;;;;;;;0.77;0.40;;;9.20;99.90;;;;;;5035080;28;20233;-77
2021/01/21 20:45:08;;;;;;;1.03;0.77;;;9.20;99.90;;;;;;5035020;28;20201;-76
2021/01/21 20:47:36;;;;;;;4.37;0.80;;;9.20;99.90;;;;;;5034769;28;20275;-76
2021/01/21 20:50:02;;;;;;;1.07;0.50;;;9.10;99.90;;;;;;5034867;28;20881;-76
2021/01/21 20:52:29;;;;;;;2.23;0.70;;;9.10;99.90;;;;;;5034731;28;20217;-75
2021/01/21 20:54:56;;;;;;;0.30;0.20;;;9.10;99.90;;;;;;5033966;28;20216;-75
2021/01/21 20:57:22;;;;;;;0.90;0.50;;;9.20;99.90;;;;;;5034452;28;20231;-76
2021/01/21 20:59:48;;;;;;;1.87;0.40;;;9.20;99.90;;;;;;5034732;28;20232;-76
2021/01/21 21:02:14;;;;;;;1.27;0.50;;;9.20;99.90;;;;;;5034200;28;20237;-76
2021/01/21 21:04:41;;;;;;;0.53;0.30;;;9.10;99.90;;;;;;5034045;28;20209;-75
2021/01/21 21:07:07;;;;;;;1.50;0.30;;;9.10;99.90;;;;;;5033563;28;20235;-77
2021/01/21 21:09:33;;;;;;;1.70;0.43;;;9.10;99.90;;;;;;5033843;28;20555;-76
2021/01/21 21:12:00;;;;;;;2.00;0.40;;;9.10;99.90;;;;;;5034075;28;20211;-76
2021/01/21 21:14:27;;;;;;;1.17;0.60;;;9.20;99.90;;;;;;5034074;28;20675;-74
2021/01/21 21:16:53;;;;;;;3.00;0.43;;;9.20;99.90;;;;;;5034130;28;20228;-76
2021/01/21 21:19:20;;;;;;;1.50;0.37;;;9.20;99.90;;;;;;5034322;28;20205;-77
2021/01/21 21:21:47;;;;;;;3.87;0.40;;;9.20;99.90;;;;;;5033675;28;20613;-75
2021/01/21 21:24:13;;;;;;;4.17;0.40;;;9.20;99.90;;;;;;5033621;28;20205;-75
2021/01/21 21:26:39;;;;;;;1.23;0.50;;;9.20;99.90;;;;;;5034669;28;20221;-77
2021/01/21 21:29:08;;;;;;;2.27;0.40;;;9.20;99.90;;;;;;5033828;28;20205;-76
2021/01/21 21:31:35;;;;;;;1.43;0.90;;;9.20;99.90;;;;;;5033650;28;20240;-77
2021/01/21 21:34:01;;;;;;;0.70;0.20;;;9.10;99.90;;;;;;5033978;28;20556;-76
2021/01/21 21:36:27;;;;;;;1.30;0.37;;;9.10;99.90;;;;;;5033479;28;20667;-76
2021/01/21 21:38:53;;;;;;;2.00;0.40;;;9.20;99.90;;;;;;5033796;28;20209;-75
2021/01/21 21:41:19;;;;;;;2.93;0.40;;;9.20;99.90;;;;;;5033826;28;20215;-76
2021/01/21 21:43:46;;;;;;;3.57;0.40;;;9.20;99.90;;;;;;5032672;28;20244;-77
2021/01/21 21:46:13;;;;;;;1.90;0.50;;;9.20;99.90;;;;;;5018559;28;20263;-76
2021/01/21 21:48:40;;;;;;;1.27;0.30;;;9.20;99.90;;;;;;5012866;28;20268;-77
2021/01/21 21:51:06;;;;;;;1.47;0.40;;;9.20;99.90;;;;;;5031067;28;20201;-76
2021/01/21 21:53:32;;;;;;;1.93;0.47;;;9.20;99.90;;;;;;5031944;28;20540;-80
2021/01/21 21:55:59;;;;;;;0.80;0.30;;;9.20;99.90;;;;;;5029793;28;20241;-76
2021/01/21 21:58:25;;;;;;;4.43;0.60;;;9.20;99.90;;;;;;5032520;28;20224;-80
